createdAt,value
2023-01-07T00:00:20.615Z,2.7
2023-01-07T00:01:29.196Z,2.9
2023-01-07T00:02:37.630Z,2.9
2023-01-07T00:03:45.930Z,2.9
2023-01-07T00:04:54.466Z,2.7
2023-01-07T00:06:02.810Z,2.7
2023-01-07T00:07:11.979Z,2.7
2023-01-07T00:08:19.717Z,2.7
2023-01-07T00:09:28.052Z,2.7
2023-01-07T00:10:36.406Z,2.7
2023-01-07T00:11:44.979Z,2.3
2023-01-07T00:12:53.315Z,2.3
2023-01-07T00:14:01.673Z,2.3
2023-01-07T00:15:10.220Z,2.4
2023-01-07T00:16:18.619Z,2.4
2023-01-07T00:17:26.973Z,2.4
2023-01-07T00:18:35.543Z,2.5
2023-01-07T00:19:43.870Z,2.5
2023-01-07T00:20:52.212Z,2.5
2023-01-07T00:22:00.791Z,2.6
2023-01-07T00:23:09.263Z,2.6
2023-01-07T00:24:18.441Z,2.6
2023-01-07T00:25:26.028Z,2.8
2023-01-07T00:26:34.406Z,2.8
2023-01-07T00:27:42.755Z,2.8
2023-01-07T00:28:51.314Z,2.1
2023-01-07T00:29:59.687Z,2.1
2023-01-07T00:31:08.095Z,2.1
2023-01-07T00:32:16.618Z,2.4
2023-01-07T00:33:24.976Z,2.4
2023-01-07T00:34:33.316Z,2.4
2023-01-07T00:35:41.891Z,2.4
2023-01-07T00:36:50.245Z,2.4
2023-01-07T00:37:58.629Z,2.4
2023-01-07T00:39:07.309Z,2
2023-01-07T00:40:15.518Z,2
2023-01-07T00:41:23.897Z,2
2023-01-07T00:42:32.435Z,2.4
2023-01-07T00:43:40.799Z,2.4
2023-01-07T00:44:49.154Z,2.4
2023-01-07T00:45:57.709Z,1.8
2023-01-07T00:47:06.059Z,1.8
2023-01-07T00:48:14.397Z,1.8
2023-01-07T00:49:22.943Z,2.1
2023-01-07T00:50:31.313Z,2.1
2023-01-07T00:51:39.680Z,2.1
2023-01-07T00:52:48.228Z,1.6
2023-01-07T00:53:56.577Z,1.6
2023-01-07T00:55:05.064Z,1.6
2023-01-07T00:56:13.495Z,1.9
2023-01-07T00:57:21.845Z,1.9
2023-01-07T00:58:30.205Z,1.9
2023-01-07T00:59:38.771Z,1.8
2023-01-07T01:00:47.156Z,1.8
2023-01-07T01:01:55.682Z,1.8
2023-01-07T01:03:04.034Z,1.6
2023-01-07T01:04:12.397Z,1.6
2023-01-07T01:05:20.766Z,1.6
2023-01-07T01:06:29.333Z,1.5
2023-01-07T01:07:37.683Z,1.5
2023-01-07T01:08:46.053Z,1.5
2023-01-07T01:09:54.589Z,1.6
2023-01-07T01:11:03.074Z,1.6
2023-01-07T01:12:11.297Z,1.6
2023-01-07T01:13:19.859Z,1.5
2023-01-07T01:14:28.208Z,1.5
2023-01-07T01:15:36.567Z,1.5
2023-01-07T01:16:45.129Z,1.5
2023-01-07T01:17:53.476Z,1.5
2023-01-07T01:19:01.830Z,1.5
2023-01-07T01:20:10.389Z,1.8
2023-01-07T01:21:18.757Z,1.8
2023-01-07T01:22:27.101Z,1.8
2023-01-07T01:23:35.665Z,1.3
2023-01-07T01:24:44.003Z,1.3
2023-01-07T01:25:52.360Z,1.3
2023-01-07T01:27:01.046Z,1.3
2023-01-07T01:28:09.271Z,1.3
2023-01-07T01:29:17.626Z,1.3
2023-01-07T01:30:26.186Z,1.1
2023-01-07T01:31:34.657Z,1.1
2023-01-07T01:32:42.904Z,1.1
2023-01-07T01:33:51.465Z,1.2
2023-01-07T01:34:59.817Z,1.2
2023-01-07T01:36:08.277Z,1.2
2023-01-07T01:37:16.764Z,1.2
2023-01-07T01:38:25.122Z,1.2
2023-01-07T01:39:33.450Z,1.2
2023-01-07T01:40:42.038Z,1
2023-01-07T01:41:50.375Z,1
2023-01-07T01:42:58.847Z,1
2023-01-07T01:44:07.280Z,1.3
2023-01-07T01:45:15.618Z,1.3
2023-01-07T01:46:23.999Z,1.3
2023-01-07T01:47:32.542Z,1.2
2023-01-07T01:48:40.886Z,1.2
2023-01-07T01:49:49.227Z,1.2
2023-01-07T01:50:57.788Z,1
2023-01-07T01:52:06.137Z,1
2023-01-07T01:53:14.502Z,1
2023-01-07T01:54:23.069Z,1.5
2023-01-07T01:55:31.432Z,1.5
2023-01-07T01:56:39.816Z,1.5
2023-01-07T01:57:48.365Z,1.1
2023-01-07T01:58:56.829Z,1.1
2023-01-07T02:00:05.039Z,1.1
2023-01-07T02:01:13.682Z,0.9
2023-01-07T02:02:22.072Z,0.9
2023-01-07T02:03:30.319Z,0.9
2023-01-07T02:04:38.881Z,1
2023-01-07T02:05:47.239Z,1
2023-01-07T02:06:55.598Z,1
2023-01-07T02:08:04.171Z,1
2023-01-07T02:09:12.525Z,1
2023-01-07T02:10:20.886Z,1
2023-01-07T02:11:29.443Z,1
2023-01-07T02:12:37.800Z,1
2023-01-07T02:13:46.147Z,1
2023-01-07T02:14:54.829Z,1.1
2023-01-07T02:16:03.098Z,1.1
2023-01-07T02:17:11.441Z,1.1
2023-01-07T02:18:20.013Z,0.9
2023-01-07T02:19:28.344Z,0.9
2023-01-07T02:20:36.727Z,0.9
2023-01-07T02:21:45.278Z,0.8
2023-01-07T02:22:53.684Z,0.8
2023-01-07T02:24:02.040Z,0.8
2023-01-07T02:25:10.575Z,0.8
2023-01-07T02:26:18.928Z,0.8
2023-01-07T02:27:27.294Z,0.8
2023-01-07T02:28:35.837Z,0.9
2023-01-07T02:29:44.176Z,0.9
2023-01-07T02:30:52.685Z,0.9
2023-01-07T02:32:01.123Z,0.9
2023-01-07T02:33:09.446Z,0.9
2023-01-07T02:34:17.804Z,0.9
2023-01-07T02:35:26.364Z,0.9
2023-01-07T02:36:34.729Z,0.9
2023-01-07T02:37:43.076Z,0.9
2023-01-07T02:38:51.662Z,0.9
2023-01-07T02:40:00.007Z,0.9
2023-01-07T02:41:08.352Z,0.9
2023-01-07T02:42:16.914Z,0.8
2023-01-07T02:43:25.256Z,0.8
2023-01-07T02:44:33.592Z,0.8
2023-01-07T02:45:42.169Z,1
2023-01-07T02:46:50.636Z,1
2023-01-07T02:47:58.864Z,1
2023-01-07T02:49:07.422Z,0.8
2023-01-07T02:50:15.765Z,0.8
2023-01-07T02:51:24.131Z,0.8
2023-01-07T02:52:32.700Z,0.8
2023-01-07T02:53:41.045Z,0.8
2023-01-07T02:54:49.405Z,0.8
2023-01-07T02:55:57.969Z,0.7
2023-01-07T02:57:06.367Z,0.7
2023-01-07T02:58:14.689Z,0.7
2023-01-07T02:59:23.254Z,0.7
2023-01-07T03:00:31.606Z,0.7
2023-01-07T03:01:40.134Z,0.7
2023-01-07T03:02:48.634Z,0.9
2023-01-07T03:03:56.934Z,0.9
2023-01-07T03:05:05.231Z,0.9
2023-01-07T03:06:13.790Z,0.8
2023-01-07T03:07:22.141Z,0.8
2023-01-07T03:08:30.508Z,0.8
2023-01-07T03:09:39.093Z,0.8
2023-01-07T03:10:47.480Z,0.8
2023-01-07T03:11:55.835Z,0.8
2023-01-07T03:13:04.416Z,0.8
2023-01-07T03:14:12.764Z,0.8
2023-01-07T03:15:21.142Z,0.8
2023-01-07T03:16:29.735Z,0.9
2023-01-07T03:17:38.043Z,0.9
2023-01-07T03:18:46.510Z,0.9
2023-01-07T03:19:54.992Z,0.8
2023-01-07T03:21:03.324Z,0.8
2023-01-07T03:22:11.650Z,0.8
2023-01-07T03:23:20.239Z,0.9
2023-01-07T03:24:28.561Z,0.9
2023-01-07T03:25:36.926Z,0.9
2023-01-07T03:26:45.494Z,0.8
2023-01-07T03:27:53.838Z,0.8
2023-01-07T03:29:02.200Z,0.8
2023-01-07T03:30:10.764Z,0.9
2023-01-07T03:31:19.167Z,0.9
2023-01-07T03:32:27.479Z,0.9
2023-01-07T03:33:36.039Z,0.9
2023-01-07T03:34:44.491Z,0.9
2023-01-07T03:35:52.729Z,0.9
2023-01-07T03:37:01.299Z,0.8
2023-01-07T03:38:09.639Z,0.8
2023-01-07T03:39:17.981Z,0.8
2023-01-07T03:40:26.617Z,0.8
2023-01-07T03:41:34.966Z,0.8
2023-01-07T03:42:43.321Z,0.8
2023-01-07T03:43:51.863Z,0.8
2023-01-07T03:45:00.223Z,0.8
2023-01-07T03:46:08.631Z,0.8
2023-01-07T03:47:17.168Z,0.7
2023-01-07T03:48:25.505Z,0.7
2023-01-07T03:49:33.977Z,0.7
2023-01-07T03:50:42.527Z,0.5
2023-01-07T03:51:50.763Z,0.5
2023-01-07T03:52:59.120Z,0.5
2023-01-07T03:54:07.704Z,0.7
2023-01-07T03:55:16.058Z,0.7
2023-01-07T03:56:24.410Z,0.7
2023-01-07T03:57:32.974Z,0.6
2023-01-07T03:58:41.323Z,0.6
2023-01-07T03:59:49.669Z,0.6
2023-01-07T04:00:58.335Z,0.7
2023-01-07T04:02:06.752Z,0.7
2023-01-07T04:03:14.929Z,0.7
2023-01-07T04:04:23.582Z,0.7
2023-01-07T04:05:31.891Z,0.7
2023-01-07T04:06:40.346Z,0.7
2023-01-07T04:07:48.790Z,0.5
2023-01-07T04:08:57.115Z,0.5
2023-01-07T04:10:05.465Z,0.5
2023-01-07T04:11:14.023Z,0.6
2023-01-07T04:12:22.398Z,0.6
2023-01-07T04:13:30.725Z,0.6
2023-01-07T04:14:39.299Z,0.6
2023-01-07T04:15:47.667Z,0.6
2023-01-07T04:16:56.031Z,0.6
2023-01-07T04:18:04.597Z,0.6
2023-01-07T04:19:12.976Z,0.6
2023-01-07T04:20:21.334Z,0.6
2023-01-07T04:21:29.890Z,0.7
2023-01-07T04:22:38.353Z,0.7
2023-01-07T04:23:46.602Z,0.7
2023-01-07T04:24:55.159Z,0.8
2023-01-07T04:26:03.511Z,0.8
2023-01-07T04:27:11.848Z,0.8
2023-01-07T04:28:20.394Z,0.6
2023-01-07T04:29:28.746Z,0.6
2023-01-07T04:30:37.152Z,0.6
2023-01-07T04:31:45.661Z,0.8
2023-01-07T04:32:54.023Z,0.8
2023-01-07T04:34:02.411Z,0.8
2023-01-07T04:35:10.947Z,0.8
2023-01-07T04:36:19.297Z,0.8
2023-01-07T04:37:27.667Z,0.8
2023-01-07T04:38:36.329Z,0.9
2023-01-07T04:39:44.561Z,0.9
2023-01-07T04:40:52.924Z,0.9
2023-01-07T04:42:01.480Z,0.7
2023-01-07T04:43:09.838Z,0.7
2023-01-07T04:44:18.178Z,0.7
2023-01-07T04:45:26.725Z,0.7
2023-01-07T04:46:35.144Z,0.7
2023-01-07T04:47:43.440Z,0.7
2023-01-07T04:48:52.002Z,0.6
2023-01-07T04:50:00.360Z,0.6
2023-01-07T04:51:08.723Z,0.6
2023-01-07T04:52:17.283Z,0.6
2023-01-07T04:53:25.650Z,0.6
2023-01-07T04:54:34.129Z,0.6
2023-01-07T04:55:43.587Z,0.6
2023-01-07T04:56:50.952Z,0.6
2023-01-07T04:57:59.312Z,0.6
2023-01-07T04:59:07.862Z,0.6
2023-01-07T05:00:16.205Z,0.6
2023-01-07T05:01:24.709Z,0.6
2023-01-07T05:02:33.141Z,1.3
2023-01-07T05:03:41.493Z,1.3
2023-01-07T05:04:49.870Z,1.3
2023-01-07T05:05:58.395Z,9.6
2023-01-07T05:07:06.735Z,9.6
2023-01-07T05:08:15.085Z,9.6
2023-01-07T05:09:23.650Z,0.8
2023-01-07T05:10:32.115Z,0.8
2023-01-07T05:11:40.437Z,0.8
2023-01-07T05:12:48.901Z,1.7
2023-01-07T05:13:57.236Z,1.7
2023-01-07T05:15:05.609Z,1.7
2023-01-07T05:16:14.181Z,0.7
2023-01-07T05:17:22.559Z,0.7
2023-01-07T05:18:30.905Z,0.7
2023-01-07T05:19:39.481Z,0.5
2023-01-07T05:20:47.856Z,0.5
2023-01-07T05:21:56.201Z,0.5
2023-01-07T05:23:04.768Z,0.4
2023-01-07T05:24:13.095Z,0.4
2023-01-07T05:25:21.449Z,0.4
2023-01-07T05:26:30.125Z,1.1
2023-01-07T05:27:38.346Z,1.1
2023-01-07T05:28:46.692Z,1.1
2023-01-07T05:29:55.257Z,0.6
2023-01-07T05:31:03.675Z,0.6
2023-01-07T05:32:11.956Z,0.6
2023-01-07T05:33:20.513Z,0.6
2023-01-07T05:34:28.882Z,0.6
2023-01-07T05:35:37.226Z,0.6
2023-01-07T05:36:45.777Z,10.7
2023-01-07T05:37:54.146Z,10.7
2023-01-07T05:39:02.530Z,10.7
2023-01-07T05:40:11.072Z,2
2023-01-07T05:41:19.436Z,2
2023-01-07T05:42:27.907Z,2
2023-01-07T05:43:36.343Z,1.9
2023-01-07T05:44:44.708Z,1.9
2023-01-07T05:45:53.094Z,1.9
2023-01-07T05:47:01.605Z,12.5
2023-01-07T05:48:09.957Z,12.5
2023-01-07T05:49:18.306Z,12.5
2023-01-07T05:50:26.906Z,17.1
2023-01-07T05:51:35.242Z,17.1
2023-01-07T05:52:43.594Z,17.1
2023-01-07T05:53:52.176Z,3.6
2023-01-07T05:55:00.529Z,3.6
2023-01-07T05:56:08.889Z,3.6
2023-01-07T05:57:17.431Z,0.6
2023-01-07T05:58:25.911Z,0.6
2023-01-07T05:59:34.194Z,0.6
2023-01-07T06:00:42.745Z,1.3
2023-01-07T06:01:51.081Z,1.3
2023-01-07T06:02:59.461Z,1.3
2023-01-07T06:04:08.015Z,1
2023-01-07T06:05:16.392Z,1
2023-01-07T06:06:24.743Z,1
2023-01-07T06:07:33.299Z,9.5
2023-01-07T06:08:41.670Z,9.5
2023-01-07T06:09:50.044Z,9.5
2023-01-07T06:10:58.611Z,0.7
2023-01-07T06:12:06.961Z,0.7
2023-01-07T06:13:15.314Z,0.7
2023-01-07T06:14:23.992Z,9.2
2023-01-07T06:15:32.314Z,9.2
2023-01-07T06:16:40.603Z,9.2
2023-01-07T06:17:49.155Z,3.2
2023-01-07T06:18:57.554Z,3.2
2023-01-07T06:20:05.933Z,3.2
2023-01-07T06:21:14.460Z,0.9
2023-01-07T06:22:22.810Z,0.9
2023-01-07T06:23:31.157Z,0.9
2023-01-07T06:24:39.777Z,4.2
2023-01-07T06:25:48.114Z,4.2
2023-01-07T06:26:56.469Z,4.2
2023-01-07T06:28:05.038Z,2.4
2023-01-07T06:29:13.392Z,2.4
2023-01-07T06:30:21.867Z,2.4
2023-01-07T06:31:30.398Z,0.6
2023-01-07T06:32:38.641Z,0.6
2023-01-07T06:33:46.987Z,0.6
2023-01-07T06:34:55.529Z,0.5
2023-01-07T06:36:03.883Z,0.5
2023-01-07T06:37:12.225Z,0.5
2023-01-07T06:38:20.788Z,0.7
2023-01-07T06:39:29.141Z,0.7
2023-01-07T06:40:37.509Z,0.7
2023-01-07T06:41:46.053Z,0.4
2023-01-07T06:42:54.419Z,0.4
2023-01-07T06:44:02.740Z,0.4
2023-01-07T06:45:11.300Z,1
2023-01-07T06:46:19.895Z,1
2023-01-07T06:47:28.063Z,1
2023-01-07T06:48:36.625Z,0.5
2023-01-07T06:49:44.967Z,0.5
2023-01-07T06:50:53.310Z,0.5
2023-01-07T06:52:01.854Z,0.9
2023-01-07T06:53:10.199Z,0.9
2023-01-07T06:54:18.559Z,0.9
2023-01-07T06:55:27.121Z,0.4
2023-01-07T06:56:35.453Z,0.4
2023-01-07T06:57:43.803Z,0.4
2023-01-07T06:58:52.398Z,1
2023-01-07T07:00:00.727Z,1
2023-01-07T07:01:09.265Z,1
2023-01-07T07:02:17.866Z,1.8
2023-01-07T07:03:26.019Z,1.8
2023-01-07T07:04:34.356Z,1.8
2023-01-07T07:05:42.944Z,0.7
2023-01-07T07:06:51.298Z,0.7
2023-01-07T07:07:59.677Z,0.7
2023-01-07T07:09:08.238Z,0.7
2023-01-07T07:10:16.618Z,0.7
2023-01-07T07:11:24.959Z,0.7
2023-01-07T07:12:33.509Z,1.3
2023-01-07T07:13:41.923Z,1.3
2023-01-07T07:14:50.257Z,1.3
2023-01-07T07:15:58.915Z,0.7
2023-01-07T07:17:07.183Z,0.7
2023-01-07T07:18:15.662Z,0.7
2023-01-07T07:19:24.090Z,0.9
2023-01-07T07:20:32.466Z,0.9
2023-01-07T07:21:40.801Z,0.9
2023-01-07T07:22:49.361Z,0.5
2023-01-07T07:23:57.702Z,0.5
2023-01-07T07:25:06.086Z,0.5
2023-01-07T07:26:14.635Z,0.7
2023-01-07T07:27:22.976Z,0.7
2023-01-07T07:28:31.364Z,0.7
2023-01-07T07:29:39.873Z,3.1
2023-01-07T07:30:48.437Z,3.1
2023-01-07T07:31:56.601Z,3.1
2023-01-07T07:33:05.196Z,1.1
2023-01-07T07:34:13.666Z,1.1
2023-01-07T07:35:21.891Z,1.1
2023-01-07T07:36:30.461Z,1.8
2023-01-07T07:37:38.836Z,1.8
2023-01-07T07:38:47.153Z,1.8
2023-01-07T07:39:55.713Z,0.6
2023-01-07T07:41:04.035Z,0.6
2023-01-07T07:42:12.375Z,0.6
2023-01-07T07:43:20.952Z,0.6
2023-01-07T07:44:29.288Z,0.6
2023-01-07T07:45:37.611Z,0.6
2023-01-07T07:46:46.210Z,0.4
2023-01-07T07:47:54.504Z,0.4
2023-01-07T07:49:02.857Z,0.4
2023-01-07T07:50:11.536Z,1.8
2023-01-07T07:51:19.782Z,1.8
2023-01-07T07:52:28.115Z,1.8
2023-01-07T07:53:36.680Z,1.1
2023-01-07T07:54:45.030Z,1.1
2023-01-07T07:55:53.359Z,1.1
2023-01-07T07:57:01.909Z,2.4
2023-01-07T07:58:10.288Z,2.4
2023-01-07T07:59:18.623Z,2.4
2023-01-07T08:00:27.280Z,6.9
2023-01-07T08:01:37.284Z,6.9
2023-01-07T08:02:43.900Z,6.9
2023-01-07T08:03:52.436Z,0.6
2023-01-07T08:05:00.827Z,0.6
2023-01-07T08:06:09.296Z,0.6
2023-01-07T08:07:32.347Z,0.5
2023-01-07T08:08:26.078Z,0.5
2023-01-07T08:09:34.428Z,0.5
2023-01-07T08:10:42.984Z,0.8
2023-01-07T08:11:51.329Z,0.8
2023-01-07T08:12:59.674Z,0.8
2023-01-07T08:14:08.236Z,0.5
2023-01-07T08:15:16.587Z,0.5
2023-01-07T08:16:25.008Z,0.5
2023-01-07T08:17:33.489Z,0.6
2023-01-07T08:18:41.847Z,0.6
2023-01-07T08:19:50.194Z,0.6
2023-01-07T08:20:58.803Z,0.7
2023-01-07T08:22:07.270Z,0.7
2023-01-07T08:23:15.437Z,0.7
2023-01-07T08:24:23.992Z,0.4
2023-01-07T08:25:32.344Z,0.4
2023-01-07T08:26:40.684Z,0.4
2023-01-07T08:27:49.267Z,0.5
2023-01-07T08:28:57.578Z,0.5
2023-01-07T08:30:05.943Z,0.5
2023-01-07T08:31:14.567Z,1
2023-01-07T08:32:22.865Z,1
2023-01-07T08:33:31.197Z,1
2023-01-07T08:34:39.740Z,0.7
2023-01-07T08:35:48.111Z,0.7
2023-01-07T08:36:56.451Z,0.7
2023-01-07T08:38:05.137Z,1.9
2023-01-07T08:39:13.361Z,1.9
2023-01-07T08:40:21.706Z,1.9
2023-01-07T08:41:30.254Z,1.1
2023-01-07T08:42:38.618Z,1.1
2023-01-07T08:43:46.978Z,1.1
2023-01-07T08:44:55.511Z,1.3
2023-01-07T08:46:03.867Z,1.3
2023-01-07T08:47:12.255Z,1.3
2023-01-07T08:48:20.783Z,2.8
2023-01-07T08:49:29.124Z,2.8
2023-01-07T08:50:37.478Z,2.8
2023-01-07T08:51:46.023Z,2.2
2023-01-07T08:52:54.369Z,2.2
2023-01-07T08:54:02.864Z,2.2
2023-01-07T08:55:11.314Z,2.2
2023-01-07T08:56:19.643Z,2.2
2023-01-07T08:57:28.013Z,2.2
2023-01-07T08:58:36.573Z,2.2
2023-01-07T08:59:44.979Z,2.2
2023-01-07T09:00:53.489Z,2.2
2023-01-07T09:02:02.075Z,2.5
2023-01-07T09:03:10.303Z,2.5
2023-01-07T09:04:18.638Z,2.5
2023-01-07T09:05:27.182Z,2.5
2023-01-07T09:06:35.555Z,2.5
2023-01-07T09:07:43.889Z,2.5
2023-01-07T09:08:52.436Z,4
2023-01-07T09:10:00.918Z,4
2023-01-07T09:11:09.125Z,4
2023-01-07T09:12:17.685Z,2.7
2023-01-07T09:13:26.038Z,2.7
2023-01-07T09:14:34.383Z,2.7
2023-01-07T09:15:42.908Z,2.4
2023-01-07T09:16:51.272Z,2.4
2023-01-07T09:17:59.618Z,2.4
2023-01-07T09:19:08.175Z,1.2
2023-01-07T09:20:16.533Z,1.2
2023-01-07T09:21:24.907Z,1.2
2023-01-07T09:22:33.470Z,4.6
2023-01-07T09:23:41.813Z,4.6
2023-01-07T09:24:50.162Z,4.6
2023-01-07T09:25:58.830Z,1.5
2023-01-07T09:27:07.051Z,1.5
2023-01-07T09:28:15.402Z,1.5
2023-01-07T09:29:23.957Z,1.7
2023-01-07T09:30:32.313Z,1.7
2023-01-07T09:31:40.676Z,1.7
2023-01-07T09:32:49.208Z,2.7
2023-01-07T09:33:57.555Z,2.7
2023-01-07T09:35:05.905Z,2.7
2023-01-07T09:36:14.479Z,2.5
2023-01-07T09:37:22.837Z,2.5
2023-01-07T09:38:31.190Z,2.5
2023-01-07T09:39:39.732Z,2.6
2023-01-07T09:40:48.064Z,2.6
2023-01-07T09:41:56.557Z,2.6
2023-01-07T09:43:04.977Z,4.5
2023-01-07T09:44:13.327Z,4.5
2023-01-07T09:45:21.689Z,4.5
2023-01-07T09:46:30.240Z,2
2023-01-07T09:47:38.584Z,2
2023-01-07T09:48:46.937Z,2
2023-01-07T09:49:55.494Z,3.6
2023-01-07T09:51:03.842Z,3.6
2023-01-07T09:52:12.191Z,3.6
2023-01-07T09:53:20.738Z,9.8
2023-01-07T09:54:29.088Z,9.8
2023-01-07T09:55:37.410Z,9.8
2023-01-07T09:56:45.966Z,3.3
2023-01-07T09:57:54.464Z,3.3
2023-01-07T09:59:02.706Z,3.3
2023-01-07T10:00:11.251Z,6.3
2023-01-07T10:01:19.625Z,6.3
2023-01-07T10:02:28.031Z,6.3
2023-01-07T10:03:36.626Z,3.2
2023-01-07T10:04:44.924Z,3.2
2023-01-07T10:05:53.304Z,3.2
2023-01-07T10:07:01.870Z,1.9
2023-01-07T10:08:29.556Z,1.9
2023-01-07T10:09:18.631Z,1.9
2023-01-07T10:10:27.182Z,3.2
2023-01-07T10:11:35.554Z,3.2
2023-01-07T10:12:43.882Z,3.2
2023-01-07T10:13:52.593Z,1
2023-01-07T10:15:00.789Z,1
2023-01-07T10:16:09.203Z,1
2023-01-07T10:17:17.769Z,1.8
2023-01-07T10:18:26.126Z,1.8
2023-01-07T10:19:34.496Z,1.8
2023-01-07T10:20:43.083Z,1.3
2023-01-07T10:21:51.462Z,1.3
2023-01-07T10:22:59.873Z,1.3
2023-01-07T10:24:08.448Z,1.2
2023-01-07T10:25:16.801Z,1.2
2023-01-07T10:26:25.139Z,1.2
2023-01-07T10:27:33.742Z,2
2023-01-07T10:28:42.109Z,2
2023-01-07T10:29:50.578Z,2
2023-01-07T10:30:59.036Z,1.7
2023-01-07T10:32:07.433Z,1.7
2023-01-07T10:33:15.799Z,1.7
2023-01-07T10:34:24.332Z,3
2023-01-07T10:35:32.698Z,3
2023-01-07T10:36:41.075Z,3
2023-01-07T10:37:49.622Z,4.5
2023-01-07T10:38:57.967Z,4.5
2023-01-07T10:40:06.323Z,4.5
2023-01-07T10:41:14.907Z,4.5
2023-01-07T10:42:23.289Z,4.5
2023-01-07T10:43:31.596Z,4.5
2023-01-07T10:44:40.148Z,5.3
2023-01-07T10:45:48.695Z,5.3
2023-01-07T10:46:56.874Z,5.3
2023-01-07T10:48:05.436Z,6.1
2023-01-07T10:49:13.786Z,6.1
2023-01-07T10:50:22.122Z,6.1
2023-01-07T10:51:30.686Z,4.4
2023-01-07T10:52:39.025Z,4.4
2023-01-07T10:53:47.375Z,4.4
2023-01-07T10:54:55.935Z,7.6
2023-01-07T10:56:04.275Z,7.6
2023-01-07T10:57:12.627Z,7.6
2023-01-07T10:58:21.199Z,4.8
2023-01-07T10:59:29.566Z,4.8
2023-01-07T11:00:37.903Z,4.8
2023-01-07T11:01:46.707Z,12.3
2023-01-07T11:02:54.906Z,12.3
2023-01-07T11:04:03.167Z,12.3
2023-01-07T11:05:13.484Z,4.1
2023-01-07T11:06:20.162Z,4.1
2023-01-07T11:07:28.517Z,4.1
2023-01-07T11:08:37.096Z,6.2
2023-01-07T11:09:45.549Z,6.2
2023-01-07T11:10:53.951Z,6.2
2023-01-07T11:12:02.600Z,5.5
2023-01-07T11:13:10.995Z,5.5
2023-01-07T11:14:19.503Z,5.5
2023-01-07T11:15:28.117Z,21.700001
2023-01-07T11:16:36.535Z,21.700001
2023-01-07T11:17:44.963Z,21.700001
2023-01-07T11:18:53.432Z,19.200001
2023-01-07T11:20:01.788Z,19.200001
2023-01-07T11:21:42.155Z,19.200001
2023-01-07T11:22:18.718Z,12.9
2023-01-07T11:23:27.052Z,12.9
2023-01-07T11:24:35.401Z,12.9
2023-01-07T11:25:43.986Z,5.6
2023-01-07T11:26:52.365Z,5.6
2023-01-07T11:28:00.755Z,5.6
2023-01-07T11:29:09.280Z,6.1
2023-01-07T11:30:17.718Z,6.1
2023-01-07T11:31:26.039Z,6.1
2023-01-07T11:32:34.563Z,4.4
2023-01-07T11:34:00.995Z,4.4
2023-01-07T11:34:51.279Z,4.4
2023-01-07T11:35:59.842Z,5
2023-01-07T11:37:08.206Z,5
2023-01-07T11:38:16.584Z,5
2023-01-07T11:39:25.130Z,7
2023-01-07T11:40:33.556Z,7
2023-01-07T11:41:42.022Z,7
2023-01-07T11:42:50.591Z,5.2
2023-01-07T11:43:58.960Z,5.2
2023-01-07T11:45:07.330Z,5.2
2023-01-07T11:46:20.584Z,3.5
2023-01-07T11:47:24.290Z,3.5
2023-01-07T11:48:32.676Z,3.5
2023-01-07T11:49:41.379Z,4
2023-01-07T11:50:49.674Z,4
2023-01-07T11:51:58.060Z,4
2023-01-07T11:53:06.636Z,7.1
2023-01-07T11:54:14.984Z,7.1
2023-01-07T11:55:23.405Z,7.1
2023-01-07T11:56:31.961Z,5.7
2023-01-07T11:57:40.353Z,5.7
2023-01-07T11:58:48.696Z,5.7
2023-01-07T11:59:57.269Z,4.3
2023-01-07T12:01:05.662Z,4.3
2023-01-07T12:02:16.281Z,4.3
2023-01-07T12:03:22.614Z,6.6
2023-01-07T12:04:30.949Z,6.6
2023-01-07T12:05:39.433Z,6.6
2023-01-07T12:06:47.912Z,7.6
2023-01-07T12:07:56.259Z,7.6
2023-01-07T12:09:04.639Z,7.6
2023-01-07T12:10:13.231Z,4.7
2023-01-07T12:11:21.633Z,4.7
2023-01-07T12:12:30.944Z,4.7
2023-01-07T12:13:39.609Z,4.5
2023-01-07T12:14:48.027Z,4.5
2023-01-07T12:15:56.375Z,4.5
2023-01-07T12:17:04.951Z,4
2023-01-07T12:18:13.286Z,4
2023-01-07T12:19:21.638Z,4
2023-01-07T12:20:30.234Z,4.7
2023-01-07T12:21:38.741Z,4.7
2023-01-07T12:22:46.993Z,4.7
2023-01-07T12:23:55.545Z,3.8
2023-01-07T12:25:03.937Z,3.8
2023-01-07T12:26:12.329Z,3.8
2023-01-07T12:27:20.932Z,4
2023-01-07T12:28:29.276Z,4
2023-01-07T12:29:37.811Z,4
2023-01-07T12:30:46.549Z,4.6
2023-01-07T12:31:54.932Z,4.6
2023-01-07T12:33:03.340Z,4.6
2023-01-07T12:34:11.909Z,3.5
2023-01-07T12:35:20.307Z,3.5
2023-01-07T12:36:28.941Z,3.5
2023-01-07T12:37:38.065Z,3.4
2023-01-07T12:38:45.904Z,3.4
2023-01-07T12:39:56.021Z,3.4
2023-01-07T12:41:02.903Z,3.1
2023-01-07T12:42:11.259Z,3.1
2023-01-07T12:43:19.660Z,3.1
2023-01-07T12:44:28.225Z,3.6
2023-01-07T12:45:36.649Z,3.6
2023-01-07T12:46:45.024Z,3.6
2023-01-07T12:47:53.613Z,5.4
2023-01-07T12:49:01.937Z,5.4
2023-01-07T12:50:10.298Z,5.4
2023-01-07T12:51:18.864Z,6.9
2023-01-07T12:52:27.209Z,6.9
2023-01-07T12:53:35.655Z,6.9
2023-01-07T12:54:44.108Z,11.7
2023-01-07T12:55:52.490Z,11.7
2023-01-07T12:57:00.875Z,11.7
2023-01-07T12:58:09.410Z,3.7
2023-01-07T12:59:45.520Z,3.7
2023-01-07T13:00:26.182Z,3.7
2023-01-07T13:01:34.831Z,3.2
2023-01-07T13:02:43.100Z,3.2
2023-01-07T13:03:51.435Z,3.2
2023-01-07T13:05:00.120Z,4.4
2023-01-07T13:06:08.355Z,4.4
2023-01-07T13:07:16.713Z,4.4
2023-01-07T13:08:25.259Z,4.5
2023-01-07T13:09:33.760Z,4.5
2023-01-07T13:10:41.986Z,4.5
2023-01-07T13:11:50.537Z,5.2
2023-01-07T13:12:58.902Z,5.2
2023-01-07T13:14:07.270Z,5.2
2023-01-07T13:15:15.856Z,8.3
2023-01-07T13:16:24.219Z,8.3
2023-01-07T13:17:32.593Z,8.3
2023-01-07T13:18:41.151Z,4.8
2023-01-07T13:19:49.508Z,4.8
2023-01-07T13:20:57.864Z,4.8
2023-01-07T13:22:06.461Z,4.8
2023-01-07T13:23:14.828Z,4.8
2023-01-07T13:24:54.303Z,4.8
2023-01-07T13:25:31.804Z,8.9
2023-01-07T13:26:40.131Z,8.9
2023-01-07T13:27:48.505Z,8.9
2023-01-07T13:28:57.112Z,5.7
2023-01-07T13:30:05.479Z,5.7
2023-01-07T13:31:13.887Z,5.7
2023-01-07T13:32:22.388Z,4.6
2023-01-07T13:33:30.755Z,4.6
2023-01-07T13:34:39.102Z,4.6
2023-01-07T13:35:47.654Z,4.5
2023-01-07T13:36:56.043Z,4.5
2023-01-07T13:38:04.385Z,4.5
2023-01-07T13:39:12.993Z,4.1
2023-01-07T13:40:21.329Z,4.1
2023-01-07T13:41:29.833Z,4.1
2023-01-07T13:42:38.283Z,4.1
2023-01-07T13:43:46.647Z,4.1
2023-01-07T13:44:55.002Z,4.1
2023-01-07T13:46:03.589Z,5.5
2023-01-07T13:47:11.894Z,5.5
2023-01-07T13:48:20.318Z,5.5
2023-01-07T13:49:28.917Z,4.4
2023-01-07T13:50:37.392Z,4.4
2023-01-07T13:51:45.742Z,4.4
2023-01-07T13:52:54.279Z,4.9
2023-01-07T13:54:02.642Z,4.9
2023-01-07T13:55:11.039Z,4.9
2023-01-07T13:56:19.602Z,36.200001
2023-01-07T13:57:28.082Z,36.200001
2023-01-07T13:58:36.316Z,36.200001
2023-01-07T13:59:44.875Z,4.4
2023-01-07T14:00:53.258Z,4.4
2023-01-07T14:02:01.729Z,4.4
2023-01-07T14:03:10.214Z,4.3
2023-01-07T14:04:18.511Z,4.3
2023-01-07T14:05:26.888Z,4.3
2023-01-07T14:06:35.428Z,4
2023-01-07T14:07:43.793Z,4
2023-01-07T14:08:52.159Z,4
2023-01-07T14:10:00.753Z,5.1
2023-01-07T14:11:09.137Z,5.1
2023-01-07T14:12:18.238Z,5.1
2023-01-07T14:13:26.183Z,4
2023-01-07T14:14:34.418Z,4
2023-01-07T14:15:42.916Z,4
2023-01-07T14:16:51.541Z,3.9
2023-01-07T14:17:59.902Z,3.9
2023-01-07T14:19:08.266Z,3.9
2023-01-07T14:20:16.851Z,4.9
2023-01-07T14:21:25.207Z,4.9
2023-01-07T14:22:33.561Z,4.9
2023-01-07T14:23:42.151Z,4.5
2023-01-07T14:24:50.491Z,4.5
2023-01-07T14:25:58.870Z,4.5
2023-01-07T14:27:07.429Z,6.5
2023-01-07T14:28:15.811Z,6.5
2023-01-07T14:29:26.586Z,6.5
2023-01-07T14:30:32.778Z,5.5
2023-01-07T15:03:22.342Z,0
2023-01-07T15:04:32.591Z,0
2023-01-07T15:05:39.005Z,0
2023-01-07T15:06:47.655Z,5.2
2023-01-07T15:07:56.025Z,5.2
2023-01-07T15:09:04.425Z,5.2
2023-01-07T15:10:13.024Z,8.4
2023-01-07T15:11:21.405Z,8.4
2023-01-07T15:12:29.834Z,8.4
2023-01-07T15:13:38.438Z,5.8
2023-01-07T15:14:46.804Z,5.8
2023-01-07T15:15:55.305Z,5.8
2023-01-07T15:17:03.814Z,5.4
2023-01-07T15:18:12.226Z,5.4
2023-01-07T15:19:20.791Z,5.4
2023-01-07T15:20:29.363Z,8.8
2023-01-07T15:21:37.775Z,8.8
2023-01-07T15:22:46.179Z,8.8
2023-01-07T15:23:54.738Z,5.5
2023-01-07T15:25:03.115Z,5.5
2023-01-07T15:26:11.499Z,5.5
2023-01-07T15:27:20.171Z,4.9
2023-01-07T15:28:28.575Z,4.9
2023-01-07T15:29:36.972Z,4.9
2023-01-07T15:30:45.537Z,13.4
2023-01-07T15:31:53.917Z,13.4
2023-01-07T15:33:02.460Z,13.4
2023-01-07T15:34:11.055Z,5.8
2023-01-07T15:35:19.522Z,5.8
2023-01-07T15:36:27.860Z,5.8
2023-01-07T15:37:36.466Z,7
2023-01-07T15:38:44.903Z,7
2023-01-07T15:39:53.314Z,7
2023-01-07T15:41:01.983Z,5
2023-01-07T15:42:10.314Z,5
2023-01-07T15:43:18.723Z,5
2023-01-07T15:44:29.268Z,217.8
2023-01-07T15:45:35.676Z,217.8
2023-01-07T15:46:44.077Z,217.8
2023-01-07T15:47:52.615Z,91
2023-01-07T15:49:01.002Z,91
2023-01-07T15:50:09.362Z,91
2023-01-07T15:51:18.118Z,71.5
2023-01-07T15:52:26.368Z,71.5
2023-01-07T15:53:34.729Z,71.5
2023-01-07T15:54:43.991Z,217.6
2023-01-07T15:55:52.393Z,217.6
2023-01-07T15:57:00.822Z,217.6
2023-01-07T15:58:09.368Z,97
2023-01-07T15:59:17.797Z,97
2023-01-07T16:00:26.133Z,97
2023-01-07T16:01:34.799Z,148.1
2023-01-07T16:02:43.149Z,148.1
2023-01-07T16:03:51.643Z,148.1
2023-01-07T16:05:00.340Z,172.39999
2023-01-07T16:06:08.730Z,172.39999
2023-01-07T16:07:17.359Z,172.39999
2023-01-07T16:08:25.856Z,153.3
2023-01-07T16:09:34.449Z,153.3
2023-01-07T16:10:42.660Z,153.3
2023-01-07T16:11:51.244Z,9.5
2023-01-07T16:12:59.631Z,9.5
2023-01-07T16:14:08.146Z,9.5
2023-01-07T16:15:16.738Z,9.8